Time;durP1;ratioP1;P1;durP2;ratioP2;P2;SDS_P1;SDS_P2;PMS_P1;PMS_P2;Temp;Humidity;BMP_temperature;BMP_pressure;BME280_temperature;BME280_humidity;BME280_pressure;Samples;Min_cycle;Max_cycle;Signal;HPM_P1;HPM_P2
2022/11/07 00:00:59;;;;;;;5.50;2.42;;;12.00;99.90;;;;;;5070571;28;20111;-39
2022/11/07 00:03:25;;;;;;;4.60;2.10;;;12.00;99.90;;;;;;5083084;28;20024;-40
2022/11/07 00:05:50;;;;;;;6.10;2.38;;;12.00;99.90;;;;;;5070307;28;20080;-40
2022/11/07 00:08:16;;;;;;;3.72;2.00;;;12.00;99.90;;;;;;5082463;28;20020;-38
2022/11/07 00:10:41;;;;;;;3.80;1.80;;;12.10;99.90;;;;;;5072444;28;20090;-40
2022/11/07 00:13:07;;;;;;;6.07;2.53;;;12.10;99.90;;;;;;5081373;28;20777;-39
2022/11/07 00:15:33;;;;;;;4.47;1.90;;;12.10;99.90;;;;;;5075177;28;20031;-39
2022/11/07 00:17:58;;;;;;;3.90;1.88;;;12.00;99.90;;;;;;5076649;28;20031;-41
2022/11/07 00:20:24;;;;;;;6.00;2.40;;;12.00;99.90;;;;;;5076964;28;20063;-40
2022/11/07 00:22:49;;;;;;;3.13;2.00;;;12.00;99.90;;;;;;5074276;28;20023;-42
2022/11/07 00:25:15;;;;;;;5.93;2.10;;;11.90;99.90;;;;;;5079779;28;20661;-39
2022/11/07 00:27:40;;;;;;;4.72;2.22;;;11.90;99.90;;;;;;5071581;28;20535;-40
2022/11/07 00:30:06;;;;;;;3.95;2.10;;;11.90;99.90;;;;;;5080791;28;20714;-41
2022/11/07 00:32:32;;;;;;;5.47;2.30;;;11.90;99.90;;;;;;5074325;28;20058;-40
2022/11/07 00:34:59;;;;;;;4.00;2.58;;;11.90;99.90;;;;;;5085960;28;20044;-39
2022/11/07 00:37:24;;;;;;;4.00;2.13;;;11.90;99.90;;;;;;5073399;28;20055;-39
2022/11/07 00:39:50;;;;;;;4.95;2.17;;;11.90;99.90;;;;;;5085890;28;20424;-40
2022/11/07 00:42:15;;;;;;;4.38;2.25;;;11.90;99.90;;;;;;5073521;28;20094;-38
2022/11/07 00:44:41;;;;;;;3.60;1.80;;;11.90;99.90;;;;;;5087095;28;20016;-41
2022/11/07 00:47:06;;;;;;;4.32;2.30;;;12.00;99.90;;;;;;5074438;28;20886;-40
2022/11/07 00:49:32;;;;;;;4.97;2.25;;;12.00;99.90;;;;;;5085698;28;20119;-40
2022/11/07 00:51:57;;;;;;;7.72;2.15;;;12.00;99.90;;;;;;5077207;28;20027;-38
2022/11/07 00:54:23;;;;;;;6.18;2.17;;;12.00;99.90;;;;;;5081264;28;20071;-41
2022/11/07 00:56:48;;;;;;;4.13;2.03;;;12.10;99.90;;;;;;5079898;28;20115;-40
2022/11/07 00:59:14;;;;;;;6.88;2.63;;;12.00;99.90;;;;;;5078939;28;20502;-41
2022/11/07 01:01:39;;;;;;;3.15;1.80;;;12.00;99.90;;;;;;5082076;28;20128;-41
2022/11/07 01:06:49;;;;;;;8.40;2.45;;;12.00;99.90;;;;;;5082299;28;20089;-41
2022/11/07 01:09:20;;;;;;;6.55;2.05;;;12.00;99.90;;;;;;5076031;28;20550;-40
2022/11/07 01:11:45;;;;;;;4.30;2.17;;;12.00;99.90;;;;;;5078544;28;20799;-41
2022/11/07 01:14:13;;;;;;;3.05;1.65;;;12.00;99.90;;;;;;5074481;28;20154;-36
2022/11/07 01:16:40;;;;;;;3.40;2.15;;;11.90;99.90;;;;;;5083273;28;20020;-37
2022/11/07 01:19:06;;;;;;;3.22;1.90;;;12.00;99.90;;;;;;5073757;28;20475;-35
2022/11/07 01:21:32;;;;;;;5.80;2.00;;;12.00;99.90;;;;;;5084461;28;20368;-41
2022/11/07 01:23:59;;;;;;;5.22;2.15;;;12.00;99.90;;;;;;5072227;28;20048;-38
2022/11/07 01:26:27;;;;;;;2.65;1.73;;;12.00;99.90;;;;;;5084615;28;20769;-38
2022/11/07 01:28:53;;;;;;;5.30;2.50;;;12.00;99.90;;;;;;5072774;28;20028;-39
2022/11/07 01:31:18;;;;;;;5.45;2.10;;;12.00;99.90;;;;;;5084240;28;20019;-40
2022/11/07 01:33:44;;;;;;;4.57;2.00;;;12.00;99.90;;;;;;5072434;28;20059;-40
2022/11/07 01:36:13;;;;;;;4.97;2.22;;;12.00;99.90;;;;;;5084098;28;20475;-40
2022/11/07 01:38:42;;;;;;;4.18;1.90;;;12.10;99.90;;;;;;5075304;28;20082;-41
2022/11/07 01:41:21;;;;;;;5.43;2.10;;;12.10;99.90;;;;;;5082493;28;20139;-38
2022/11/07 01:44:05;;;;;;;4.97;1.90;;;12.10;99.90;;;;;;5074333;28;20119;-41
2022/11/07 01:46:37;;;;;;;3.72;1.80;;;12.10;99.90;;;;;;5084025;28;20036;-40
2022/11/07 01:49:11;;;;;;;2.83;1.90;;;12.10;99.90;;;;;;5074015;28;20132;-38
2022/11/07 01:51:56;;;;;;;4.60;1.67;;;12.10;99.90;;;;;;5083753;28;20040;-41
2022/11/07 01:54:25;;;;;;;5.50;2.50;;;12.20;99.90;;;;;;5072779;28;20020;-41
2022/11/07 01:56:54;;;;;;;5.32;2.10;;;12.20;99.90;;;;;;5077680;28;20044;-41
2022/11/07 01:59:25;;;;;;;5.25;1.92;;;12.10;99.90;;;;;;5075417;28;20024;-41
2022/11/07 02:01:51;;;;;;;3.97;1.90;;;12.10;99.90;;;;;;5066368;28;20043;-40
2022/11/07 02:04:20;;;;;;;4.65;1.75;;;12.10;99.90;;;;;;5070773;28;20049;-40
2022/11/07 02:06:57;;;;;;;5.78;2.15;;;12.10;99.90;;;;;;5068686;28;20020;-41
2022/11/07 02:09:22;;;;;;;3.95;1.85;;;12.10;99.90;;;;;;5070843;28;20491;-41
2022/11/07 02:11:48;;;;;;;5.72;2.15;;;12.10;99.90;;;;;;5068756;28;20032;-39
2022/11/07 02:14:15;;;;;;;3.78;1.90;;;12.10;99.90;;;;;;5068512;28;20027;-40
2022/11/07 02:16:41;;;;;;;4.15;1.73;;;12.10;99.90;;;;;;5072252;28;20078;-40
2022/11/07 02:19:18;;;;;;;3.80;2.00;;;12.10;99.90;;;;;;5065725;28;20028;-40
2022/11/07 02:21:51;;;;;;;5.10;1.58;;;12.10;99.90;;;;;;5072772;28;20066;-41
2022/11/07 02:24:30;;;;;;;4.60;1.55;;;12.10;99.90;;;;;;5065773;28;20476;-40
2022/11/07 02:26:57;;;;;;;3.90;1.70;;;12.10;99.90;;;;;;5071952;28;20059;-38
2022/11/07 02:29:24;;;;;;;4.78;1.90;;;12.00;99.90;;;;;;5064444;28;20025;-39
2022/11/07 02:32:04;;;;;;;3.85;2.05;;;12.00;99.90;;;;;;5074377;28;20029;-41
2022/11/07 02:34:30;;;;;;;6.43;1.80;;;12.00;99.90;;;;;;5063397;28;20531;-41
2022/11/07 02:36:56;;;;;;;6.50;2.22;;;12.00;99.90;;;;;;5074829;28;20033;-40
2022/11/07 02:39:22;;;;;;;3.92;2.30;;;12.00;99.90;;;;;;5064193;28;20020;-39
2022/11/07 02:41:49;;;;;;;6.03;1.83;;;12.00;99.90;;;;;;5074637;28;20036;-40
2022/11/07 02:44:14;;;;;;;3.40;1.77;;;12.00;99.90;;;;;;5063039;28;20024;-39
2022/11/07 02:46:40;;;;;;;4.13;1.90;;;12.00;99.90;;;;;;5075024;28;20029;-38
2022/11/07 02:49:06;;;;;;;3.50;1.70;;;12.00;99.90;;;;;;5067145;28;20026;-39
2022/11/07 02:51:31;;;;;;;4.35;2.17;;;12.00;99.90;;;;;;5070322;28;20035;-40
2022/11/07 02:54:09;;;;;;;6.10;2.15;;;11.90;99.90;;;;;;5082529;28;20642;-41
2022/11/07 02:56:34;;;;;;;4.28;2.05;;;11.90;99.90;;;;;;5070760;28;20488;-39
2022/11/07 02:59:06;;;;;;;5.38;2.05;;;11.90;99.90;;;;;;5084351;28;20027;-41
2022/11/07 03:01:32;;;;;;;4.05;1.75;;;11.90;99.90;;;;;;5071661;28;20523;-40
2022/11/07 03:03:57;;;;;;;5.82;1.80;;;11.80;99.90;;;;;;5081754;28;20123;-39
2022/11/07 03:06:24;;;;;;;8.27;2.13;;;11.80;99.90;;;;;;5074982;28;20460;-39
2022/11/07 03:08:50;;;;;;;5.75;2.30;;;11.80;99.90;;;;;;5078575;28;20035;-40
2022/11/07 03:11:20;;;;;;;4.47;1.92;;;11.80;99.90;;;;;;5076187;28;20025;-39
2022/11/07 03:13:47;;;;;;;5.30;2.10;;;11.80;99.90;;;;;;5077506;28;20024;-38
2022/11/07 03:16:13;;;;;;;7.15;1.90;;;11.80;99.90;;;;;;5078221;28;20420;-39
2022/11/07 03:18:39;;;;;;;3.35;1.80;;;11.70;99.90;;;;;;5074709;28;20110;-40
2022/11/07 03:21:07;;;;;;;6.43;2.30;;;11.70;99.90;;;;;;5081890;28;20057;-38
2022/11/07 03:23:36;;;;;;;4.07;1.70;;;11.70;99.90;;;;;;5071391;28;20032;-41
2022/11/07 03:26:02;;;;;;;4.68;1.88;;;11.70;99.90;;;;;;5081149;28;20032;-40
2022/11/07 03:28:28;;;;;;;4.20;1.70;;;11.70;99.90;;;;;;5071168;28;20478;-42
2022/11/07 03:30:53;;;;;;;5.38;1.90;;;11.70;99.90;;;;;;5081490;28;20031;-40
2022/11/07 03:33:19;;;;;;;4.15;1.95;;;11.70;99.90;;;;;;5070474;28;20027;-39
2022/11/07 03:35:45;;;;;;;7.13;2.25;;;11.70;99.90;;;;;;5082032;28;20793;-40
2022/11/07 03:38:10;;;;;;;4.45;1.80;;;11.70;99.90;;;;;;5069060;28;20444;-40
2022/11/07 03:40:36;;;;;;;7.07;1.95;;;11.70;99.90;;;;;;5082505;28;20423;-39
2022/11/07 03:43:01;;;;;;;5.65;2.13;;;11.70;99.90;;;;;;5069826;28;20043;-41
2022/11/07 03:45:27;;;;;;;5.28;2.00;;;11.80;99.90;;;;;;5081584;28;20059;-42
2022/11/07 03:47:53;;;;;;;7.28;2.22;;;11.80;99.90;;;;;;5072949;28;20063;-40
2022/11/07 03:50:24;;;;;;;4.63;1.92;;;11.90;99.90;;;;;;5078298;28;20176;-37
2022/11/07 03:52:50;;;;;;;7.63;2.00;;;11.90;99.90;;;;;;5075356;28;20090;-41
2022/11/07 03:55:17;;;;;;;5.70;2.17;;;11.90;99.90;;;;;;5077735;28;20422;-39
2022/11/07 03:57:43;;;;;;;7.05;2.13;;;12.00;99.90;;;;;;5076982;28;20043;-36
2022/11/07 04:00:09;;;;;;;7.00;2.10;;;12.00;99.90;;;;;;5074436;28;20017;-38
2022/11/07 04:02:38;;;;;;;5.65;2.30;;;12.00;99.90;;;;;;5080734;28;20036;-40
2022/11/07 04:05:04;;;;;;;7.47;2.25;;;12.10;99.90;;;;;;5072628;28;20378;-41
2022/11/07 04:07:29;;;;;;;7.20;2.13;;;12.00;99.90;;;;;;5084912;28;20036;-40
2022/11/07 04:09:55;;;;;;;7.25;2.40;;;12.10;99.90;;;;;;5075592;28;20024;-38
2022/11/07 04:17:49;;;;;;;5.40;2.05;;;12.10;99.90;;;;;;5066997;28;20454;-40
2022/11/07 04:20:15;;;;;;;8.18;2.47;;;12.10;99.90;;;;;;5076529;28;20033;-41
2022/11/07 04:22:40;;;;;;;5.43;2.13;;;12.10;99.90;;;;;;5067988;28;20468;-38
2022/11/07 04:25:09;;;;;;;8.23;2.25;;;12.10;99.90;;;;;;5076490;28;20561;-40
2022/11/07 04:27:41;;;;;;;4.55;2.05;;;12.10;99.90;;;;;;5066700;28;20024;-40
2022/11/07 04:30:21;;;;;;;7.83;1.97;;;12.10;99.90;;;;;;5074515;28;20016;-38
2022/11/07 04:32:58;;;;;;;5.90;2.67;;;12.10;99.90;;;;;;5086094;28;20297;-41
2022/11/07 04:35:26;;;;;;;9.73;2.47;;;12.10;99.90;;;;;;5073796;28;20500;-40
2022/11/07 04:37:52;;;;;;;8.15;2.20;;;12.10;99.90;;;;;;5087013;28;20035;-41
2022/11/07 04:40:18;;;;;;;7.82;2.15;;;12.10;99.90;;;;;;5072324;28;20036;-39
2022/11/07 04:42:45;;;;;;;4.78;1.70;;;12.20;99.90;;;;;;5086376;28;20028;-40
2022/11/07 04:45:12;;;;;;;7.13;1.90;;;12.10;99.90;;;;;;5072519;28;20141;-40
2022/11/07 04:47:38;;;;;;;5.68;1.77;;;12.20;99.90;;;;;;5064254;28;20036;-40
2022/11/07 04:50:06;;;;;;;5.47;1.92;;;12.20;99.90;;;;;;5075146;28;20024;-39
2022/11/07 04:52:32;;;;;;;6.43;1.80;;;12.30;99.90;;;;;;5067133;28;20070;-40
2022/11/07 04:54:57;;;;;;;8.82;2.10;;;12.30;99.90;;;;;;5072071;28;20136;-39
2022/11/07 04:57:23;;;;;;;7.50;1.83;;;12.30;99.90;;;;;;5069744;28;20049;-40
2022/11/07 04:59:48;;;;;;;8.23;2.00;;;12.30;99.90;;;;;;5070948;28;20024;-41
2022/11/07 05:02:14;;;;;;;6.47;1.80;;;12.30;99.90;;;;;;5072359;28;20444;-41
2022/11/07 05:04:40;;;;;;;7.22;1.73;;;12.30;99.90;;;;;;5068474;28;20800;-39
2022/11/07 05:07:06;;;;;;;7.25;1.83;;;12.40;99.90;;;;;;5075860;28;20029;-38
2022/11/07 05:09:33;;;;;;;9.10;2.08;;;12.40;99.90;;;;;;5066459;28;20073;-39
2022/11/07 05:11:59;;;;;;;10.43;2.58;;;12.40;99.90;;;;;;5074218;28;20071;-38
2022/11/07 05:14:25;;;;;;;7.88;1.95;;;12.40;99.90;;;;;;5065649;28;20538;-41
2022/11/07 05:16:53;;;;;;;8.65;2.17;;;12.40;99.90;;;;;;5079961;28;20024;-41
2022/11/07 05:19:19;;;;;;;4.85;1.80;;;12.40;99.90;;;;;;5065195;28;20052;-41
2022/11/07 05:21:45;;;;;;;6.05;1.90;;;12.40;99.90;;;;;;5077214;28;20040;-41
2022/11/07 05:24:12;;;;;;;6.40;1.63;;;12.50;99.90;;;;;;5064808;28;20020;-41
2022/11/07 05:26:38;;;;;;;5.55;1.90;;;12.40;99.90;;;;;;5077364;28;20760;-40
2022/11/07 05:29:04;;;;;;;4.60;1.40;;;12.40;99.90;;;;;;5064291;28;20028;-39
2022/11/07 05:31:30;;;;;;;6.18;1.70;;;12.40;99.90;;;;;;5074798;28;20031;-41
2022/11/07 05:33:58;;;;;;;8.23;2.15;;;12.40;99.90;;;;;;5066537;28;20036;-41
2022/11/07 05:36:24;;;;;;;4.18;1.63;;;12.40;99.90;;;;;;5072754;28;20031;-41
2022/11/07 05:38:52;;;;;;;7.93;2.20;;;12.50;99.90;;;;;;5069317;28;20028;-41
2022/11/07 05:41:19;;;;;;;8.20;2.50;;;12.50;99.90;;;;;;5070735;28;20044;-40
2022/11/07 05:43:46;;;;;;;7.25;1.95;;;12.40;99.90;;;;;;5071012;28;20130;-40
2022/11/07 05:46:12;;;;;;;4.88;1.80;;;12.40;99.90;;;;;;5068443;28;20027;-40
2022/11/07 05:48:37;;;;;;;8.73;1.83;;;12.40;99.90;;;;;;5074246;28;20486;-38
2022/11/07 05:51:05;;;;;;;4.88;1.80;;;12.40;99.90;;;;;;5066123;28;20384;-40
2022/11/07 05:53:31;;;;;;;6.22;2.10;;;12.50;99.90;;;;;;5073210;28;20024;-41
2022/11/07 05:55:56;;;;;;;5.93;1.63;;;12.50;99.90;;;;;;5082466;28;20032;-42
2022/11/07 05:58:22;;;;;;;7.28;2.10;;;12.40;99.90;;;;;;5072244;28;20047;-39
2022/11/07 06:00:48;;;;;;;6.28;1.73;;;12.40;99.90;;;;;;5083733;28;20470;-40
2022/11/07 06:03:14;;;;;;;5.55;1.67;;;12.40;99.90;;;;;;5070502;28;20032;-41
2022/11/07 06:05:41;;;;;;;5.25;1.77;;;12.40;99.90;;;;;;5084936;28;20028;-40
2022/11/07 06:08:10;;;;;;;8.45;2.00;;;12.40;99.90;;;;;;5070780;28;20562;-40
2022/11/07 06:10:36;;;;;;;7.00;1.70;;;12.40;99.90;;;;;;5084523;28;20023;-40
2022/11/07 06:13:04;;;;;;;10.52;2.13;;;12.40;99.90;;;;;;5076947;28;20028;-41
2022/11/07 06:15:31;;;;;;;5.68;1.83;;;12.40;99.90;;;;;;5064518;28;20035;-42
2022/11/07 06:18:01;;;;;;;6.43;2.00;;;12.40;99.90;;;;;;5073856;28;20159;-42
2022/11/07 06:20:27;;;;;;;7.05;2.20;;;12.40;99.90;;;;;;5065980;28;20825;-38
2022/11/07 06:22:57;;;;;;;9.75;2.70;;;12.40;99.90;;;;;;5072308;28;20028;-40
2022/11/07 06:25:22;;;;;;;4.22;1.70;;;12.30;99.90;;;;;;5067140;28;20032;-42
2022/11/07 06:27:48;;;;;;;9.70;2.47;;;12.30;99.90;;;;;;5069852;28;20035;-41
2022/11/07 06:30:13;;;;;;;9.20;2.20;;;12.30;99.90;;;;;;5070479;28;20071;-40
2022/11/07 06:32:43;;;;;;;8.07;2.20;;;12.40;99.90;;;;;;5066781;28;20543;-41
2022/11/07 06:35:09;;;;;;;6.40;1.80;;;12.40;99.90;;;;;;5072686;28;20261;-39
2022/11/07 06:37:34;;;;;;;6.55;2.00;;;12.40;99.90;;;;;;5065309;28;20031;-40
2022/11/07 06:40:00;;;;;;;10.05;2.30;;;12.40;99.90;;;;;;5074904;28;20024;-41
2022/11/07 06:42:25;;;;;;;6.25;1.85;;;12.40;99.90;;;;;;5066192;28;20714;-40
2022/11/07 06:44:51;;;;;;;8.70;2.10;;;12.40;99.90;;;;;;5072953;28;20071;-39
2022/11/07 06:47:16;;;;;;;8.35;2.28;;;12.50;99.90;;;;;;5081093;28;20308;-39
2022/11/07 06:49:42;;;;;;;7.78;2.53;;;12.50;99.90;;;;;;5069844;28;20077;-40
2022/11/07 06:52:07;;;;;;;8.95;2.28;;;12.40;99.90;;;;;;5082957;28;20483;-40
2022/11/07 06:54:33;;;;;;;7.78;2.60;;;12.40;99.90;;;;;;5070042;28;20823;-41
2022/11/07 06:56:58;;;;;;;8.35;2.47;;;12.50;99.90;;;;;;5065952;28;20039;-38
2022/11/07 06:59:24;;;;;;;7.60;2.30;;;12.40;99.90;;;;;;5066873;28;20506;-40
2022/11/07 07:01:50;;;;;;;7.82;1.85;;;12.40;99.90;;;;;;5079969;28;20556;-39
2022/11/07 07:04:15;;;;;;;4.80;1.60;;;12.40;99.90;;;;;;5074575;28;20483;-40
2022/11/07 07:06:41;;;;;;;6.93;2.05;;;12.50;99.90;;;;;;5077304;28;20028;-40
2022/11/07 07:09:06;;;;;;;6.57;1.67;;;12.50;99.90;;;;;;5077802;28;20111;-41
2022/11/07 07:11:35;;;;;;;7.63;2.25;;;12.50;99.90;;;;;;5075383;28;20475;-42
2022/11/07 07:14:01;;;;;;;9.85;2.80;;;12.50;99.90;;;;;;5080072;28;20020;-41
2022/11/07 07:16:29;;;;;;;7.43;2.03;;;12.60;99.90;;;;;;5072542;28;20903;-40
2022/11/07 07:18:55;;;;;;;7.22;1.90;;;12.50;99.90;;;;;;5081493;28;20136;-40
2022/11/07 07:21:20;;;;;;;6.13;2.28;;;12.60;99.90;;;;;;5070431;28;20028;-39
2022/11/07 07:23:46;;;;;;;7.70;1.92;;;12.60;99.90;;;;;;5082494;28;20055;-39
2022/11/07 07:26:14;;;;;;;9.20;2.33;;;12.60;99.90;;;;;;5071402;28;20027;-40
2022/11/07 07:28:41;;;;;;;6.10;1.80;;;12.60;99.90;;;;;;5074469;28;20024;-38
2022/11/07 07:31:12;;;;;;;8.00;1.92;;;12.60;99.90;;;;;;5070290;28;20024;-40
2022/11/07 07:33:38;;;;;;;7.47;1.85;;;12.70;99.90;;;;;;5083090;28;20024;-39
2022/11/07 07:36:04;;;;;;;9.35;2.85;;;12.70;99.90;;;;;;5068325;28;20031;-39
2022/11/07 07:38:30;;;;;;;8.35;2.20;;;12.70;99.90;;;;;;5082782;28;20407;-41
2022/11/07 07:40:59;;;;;;;8.93;2.40;;;12.70;99.90;;;;;;5070504;28;20062;-41
2022/11/07 07:43:26;;;;;;;8.05;2.20;;;12.80;99.90;;;;;;5081070;28;20016;-40
2022/11/07 07:45:59;;;;;;;10.02;2.55;;;12.70;99.90;;;;;;5072950;28;20043;-41
2022/11/07 07:48:25;;;;;;;5.75;2.08;;;12.80;99.90;;;;;;5080979;28;20024;-37
2022/11/07 07:50:57;;;;;;;5.57;1.80;;;12.80;99.90;;;;;;5074571;28;20108;-40
2022/11/07 07:53:23;;;;;;;6.85;1.70;;;12.80;99.90;;;;;;5079308;28;20051;-40
2022/11/07 07:55:48;;;;;;;6.85;2.03;;;12.90;99.90;;;;;;5076222;28;20830;-39
2022/11/07 07:58:17;;;;;;;5.35;1.58;;;12.90;99.90;;;;;;5076792;28;20039;-39
2022/11/07 08:00:42;;;;;;;7.68;2.20;;;12.90;99.90;;;;;;5078594;28;20051;-38
2022/11/07 08:03:10;;;;;;;6.70;1.98;;;13.00;99.90;;;;;;5073335;28;20020;-42
2022/11/07 08:05:37;;;;;;;10.25;2.55;;;13.00;99.90;;;;;;5081713;28;20024;-41
2022/11/07 08:08:04;;;;;;;6.95;2.08;;;13.00;99.90;;;;;;5072076;28;20024;-40
2022/11/07 08:10:30;;;;;;;7.45;2.00;;;13.10;99.90;;;;;;5080477;28;20028;-40
2022/11/07 08:12:55;;;;;;;6.82;1.73;;;13.10;99.90;;;;;;5071837;28;20016;-39
2022/11/07 08:15:21;;;;;;;5.78;1.70;;;13.20;99.90;;;;;;5082511;28;20669;-38
2022/11/07 08:17:47;;;;;;;4.18;1.52;;;13.20;99.90;;;;;;5070157;28;20024;-41
2022/11/07 08:20:14;;;;;;;6.65;1.40;;;13.30;99.90;;;;;;5082363;28;20035;-39
2022/11/07 08:22:43;;;;;;;5.07;1.70;;;13.30;99.90;;;;;;5069451;28;20063;-40
2022/11/07 08:25:09;;;;;;;6.20;2.25;;;13.30;99.90;;;;;;5081792;28;20028;-37
2022/11/07 08:27:36;;;;;;;8.27;2.50;;;13.40;99.90;;;;;;5069739;28;20025;-42
2022/11/07 08:30:03;;;;;;;7.28;2.22;;;13.40;99.90;;;;;;5082546;28;20383;-40
2022/11/07 08:32:29;;;;;;;5.68;1.90;;;13.40;99.90;;;;;;5071606;28;20689;-41
2022/11/07 08:34:57;;;;;;;7.32;2.10;;;13.50;99.90;;;;;;5080508;28;20612;-40
2022/11/07 08:37:23;;;;;;;6.22;1.92;;;13.50;99.90;;;;;;5074118;28;20116;-39
2022/11/07 08:39:48;;;;;;;8.15;2.38;;;13.60;99.90;;;;;;5077669;28;20127;-40
2022/11/07 08:42:14;;;;;;;6.55;1.80;;;13.70;99.90;;;;;;5076925;28;20041;-40
2022/11/07 08:44:39;;;;;;;7.30;2.28;;;13.70;99.90;;;;;;5079301;28;20070;-39
2022/11/07 08:47:05;;;;;;;8.07;2.33;;;13.80;99.90;;;;;;5079796;28;20028;-41
2022/11/07 08:49:31;;;;;;;6.60;2.35;;;13.80;99.90;;;;;;5076419;28;20031;-41
2022/11/07 08:51:57;;;;;;;7.50;2.10;;;13.90;99.90;;;;;;5079876;28;20024;-40
2022/11/07 08:54:24;;;;;;;7.72;2.22;;;13.90;99.90;;;;;;5078491;28;20103;-40
2022/11/07 08:56:50;;;;;;;8.55;2.50;;;13.90;99.90;;;;;;5085279;28;20086;-41
2022/11/07 08:59:16;;;;;;;6.68;1.73;;;14.00;99.90;;;;;;5077906;28;20032;-41
2022/11/07 09:01:42;;;;;;;7.13;2.10;;;14.00;99.90;;;;;;5085638;28;20164;-39
2022/11/07 09:04:07;;;;;;;8.05;2.15;;;14.00;99.90;;;;;;5079152;28;20648;-40
2022/11/07 09:06:33;;;;;;;5.60;2.10;;;14.00;99.90;;;;;;5084926;28;20253;-39
2022/11/07 09:08:59;;;;;;;5.63;2.08;;;14.10;99.90;;;;;;5079882;28;20027;-40
2022/11/07 09:11:25;;;;;;;5.20;1.73;;;14.10;99.90;;;;;;5082148;28;20031;-40
2022/11/07 09:13:52;;;;;;;7.80;2.13;;;14.10;99.90;;;;;;5080793;28;20020;-39
2022/11/07 09:16:18;;;;;;;6.35;1.70;;;14.10;99.90;;;;;;5067202;28;20036;-41
2022/11/07 09:18:45;;;;;;;7.47;2.05;;;14.10;99.90;;;;;;5073292;28;20024;-41
2022/11/07 09:21:12;;;;;;;7.28;1.75;;;14.10;99.90;;;;;;5067113;28;20571;-38
2022/11/07 09:23:37;;;;;;;6.75;2.03;;;14.20;99.90;;;;;;5070650;28;20085;-40
2022/11/07 09:26:03;;;;;;;5.40;1.70;;;14.20;99.90;;;;;;5072873;28;20874;-40
2022/11/07 09:28:29;;;;;;;5.95;2.00;;;14.20;99.90;;;;;;5066517;28;20036;-39
2022/11/07 09:30:56;;;;;;;7.72;2.28;;;14.20;99.90;;;;;;5075188;28;20082;-40
2022/11/07 09:33:22;;;;;;;4.20;1.50;;;14.20;99.90;;;;;;5065462;28;20781;-43
2022/11/07 09:35:49;;;;;;;6.93;2.40;;;14.20;99.90;;;;;;5076203;28;20047;-41
2022/11/07 09:38:14;;;;;;;6.60;3.08;;;14.20;99.90;;;;;;5065870;28;20032;-41
2022/11/07 09:40:57;;;;;;;5.72;1.60;;;14.30;99.90;;;;;;5076496;28;20829;-40
2022/11/07 09:43:28;;;;;;;5.30;1.60;;;14.30;99.90;;;;;;5065914;28;20035;-40
2022/11/07 09:46:12;;;;;;;6.47;1.60;;;14.30;99.90;;;;;;5078889;28;20052;-40
2022/11/07 09:48:56;;;;;;;5.07;1.48;;;14.30;99.90;;;;;;5081890;28;20127;-41
2022/11/07 09:51:41;;;;;;;6.15;1.88;;;14.30;99.90;;;;;;5078021;28;20028;-41
2022/11/07 09:54:17;;;;;;;5.72;1.70;;;14.30;99.90;;;;;;5080881;28;20514;-41
2022/11/07 09:56:43;;;;;;;6.65;1.75;;;14.30;99.90;;;;;;5081061;28;20016;-41
2022/11/07 09:59:43;;;;;;;8.02;2.67;;;14.40;99.90;;;;;;5082939;28;20459;-41
2022/11/07 10:02:18;;;;;;;5.85;2.15;;;14.40;99.90;;;;;;5080481;28;20040;-40
2022/11/07 10:04:44;;;;;;;8.57;2.38;;;14.40;99.90;;;;;;5078013;28;20036;-40
2022/11/07 10:07:17;;;;;;;8.35;2.42;;;14.40;99.90;;;;;;5079382;28;20048;-40
2022/11/07 10:09:56;;;;;;;7.72;1.73;;;14.40;99.90;;;;;;5078427;28;20024;-41
2022/11/07 10:12:31;;;;;;;8.63;2.15;;;14.40;99.90;;;;;;5078507;28;20031;-39
2022/11/07 10:15:09;;;;;;;7.75;2.40;;;14.40;99.90;;;;;;5079308;28;20621;-40
2022/11/07 10:17:44;;;;;;;8.38;2.78;;;14.40;99.90;;;;;;5080051;28;20028;-40
2022/11/07 10:20:28;;;;;;;5.55;1.85;;;14.40;99.90;;;;;;5079776;28;20020;-38
2022/11/07 10:23:02;;;;;;;4.53;1.83;;;14.30;99.90;;;;;;5081672;28;20039;-41
2022/11/07 10:25:52;;;;;;;8.55;2.00;;;14.30;99.90;;;;;;5077988;28;20473;-40
2022/11/07 10:28:23;;;;;;;8.43;1.92;;;14.30;99.90;;;;;;5080180;28;20180;-41
2022/11/07 10:30:54;;;;;;;6.78;2.20;;;14.30;99.90;;;;;;5078899;28;20854;-41
2022/11/07 10:33:33;;;;;;;6.80;2.08;;;14.30;99.90;;;;;;5080295;28;20036;-40
2022/11/07 10:36:06;;;;;;;6.53;2.22;;;14.30;99.90;;;;;;5079853;28;20470;-41
2022/11/07 10:38:33;;;;;;;7.68;2.13;;;14.30;99.90;;;;;;5080922;28;20028;-38
2022/11/07 10:40:59;;;;;;;6.55;2.25;;;14.40;99.90;;;;;;5080194;28;20062;-39
2022/11/07 10:43:34;;;;;;;9.70;3.58;;;14.40;99.90;;;;;;5075107;28;20032;-41
2022/11/07 10:46:02;;;;;;;4.78;2.22;;;14.40;99.90;;;;;;5081296;28;20160;-40
2022/11/07 10:48:32;;;;;;;8.40;2.20;;;14.40;99.90;;;;;;5070449;28;20056;-41
2022/11/07 10:50:58;;;;;;;7.32;2.40;;;14.40;99.90;;;;;;5079350;28;20571;-41
2022/11/07 10:53:25;;;;;;;6.18;2.00;;;14.50;99.90;;;;;;5076079;28;20415;-40
2022/11/07 10:55:51;;;;;;;5.82;1.88;;;14.50;99.90;;;;;;5082588;28;20057;-37
2022/11/07 10:58:19;;;;;;;6.45;1.88;;;14.50;99.90;;;;;;5077965;28;20448;-39
2022/11/07 11:00:58;;;;;;;7.53;2.13;;;14.50;99.90;;;;;;5082751;28;20020;-38
2022/11/07 11:03:28;;;;;;;7.43;2.15;;;14.60;99.90;;;;;;5072754;28;20043;-39
2022/11/07 11:05:54;;;;;;;5.25;1.60;;;14.60;99.90;;;;;;5062993;28;20020;-39
2022/11/07 11:08:22;;;;;;;7.82;2.35;;;14.70;99.90;;;;;;5075535;28;20375;-39
2022/11/07 11:10:51;;;;;;;9.10;2.35;;;14.70;99.90;;;;;;5064381;28;20066;-38
2022/11/07 11:13:28;;;;;;;6.25;2.03;;;14.80;99.90;;;;;;5069793;28;20035;-39
2022/11/07 11:15:58;;;;;;;6.65;2.10;;;14.90;99.90;;;;;;5082841;28;20868;-38
2022/11/07 11:18:24;;;;;;;5.85;2.20;;;14.90;99.90;;;;;;5072845;28;20039;-36
2022/11/07 11:21:01;;;;;;;4.18;1.75;;;15.00;99.90;;;;;;5077051;28;20479;-38
2022/11/07 11:23:35;;;;;;;7.72;1.90;;;15.10;99.90;;;;;;5079180;28;20398;-41
2022/11/07 11:26:29;;;;;;;7.80;2.35;;;15.10;99.90;;;;;;5064057;28;20028;-42
2022/11/07 11:29:00;;;;;;;6.43;1.95;;;15.10;99.90;;;;;;5067537;28;20040;-36
2022/11/07 11:31:39;;;;;;;7.32;2.10;;;15.10;99.90;;;;;;5062728;28;20032;-39
2022/11/07 11:34:26;;;;;;;7.15;2.08;;;15.00;99.90;;;;;;5075084;28;20048;-39
2022/11/07 11:37:04;;;;;;;9.20;2.35;;;15.00;99.90;;;;;;5063185;28;20032;-38
2022/11/07 11:39:49;;;;;;;7.38;2.15;;;15.00;99.90;;;;;;5070064;28;20032;-37
2022/11/07 11:43:04;;;;;;;10.52;2.50;;;15.00;99.90;;;;;;5081384;28;20059;-37
2022/11/07 11:45:38;;;;;;;10.65;2.33;;;15.00;99.90;;;;;;5073611;28;20039;-40
2022/11/07 11:48:43;;;;;;;7.40;2.40;;;15.00;99.90;;;;;;5080159;28;20039;-41
2022/11/07 11:51:26;;;;;;;7.07;2.00;;;15.00;99.90;;;;;;5077165;28;20134;-41
2022/11/07 11:53:52;;;;;;;7.93;1.90;;;15.10;99.90;;;;;;5075610;28;20447;-36
2022/11/07 11:56:43;;;;;;;4.60;1.88;;;15.20;99.90;;;;;;5077046;28;20032;-38
2022/11/07 11:59:38;;;;;;;7.10;2.13;;;15.20;99.90;;;;;;5069734;28;20050;-40
2022/11/07 12:02:56;;;;;;;8.65;2.15;;;15.30;99.90;;;;;;5081562;28;20132;-39
2022/11/07 12:05:26;;;;;;;4.57;1.90;;;15.30;99.90;;;;;;5069586;28;20620;-40
2022/11/07 12:08:10;;;;;;;6.70;2.03;;;15.30;99.90;;;;;;5082266;28;20028;-38
2022/11/07 12:10:50;;;;;;;5.47;1.80;;;15.30;99.90;;;;;;5073355;28;20517;-40
2022/11/07 12:14:08;;;;;;;6.90;2.17;;;15.40;99.90;;;;;;5080205;28;20086;-40
2022/11/07 12:17:01;;;;;;;8.90;2.40;;;15.40;99.90;;;;;;5014994;28;20036;-41
2022/11/07 12:19:38;;;;;;;9.38;2.47;;;15.40;99.90;;;;;;5075820;28;20028;-42
2022/11/07 12:22:19;;;;;;;5.60;2.15;;;15.40;99.90;;;;;;5079584;28;20188;-38
2022/11/07 12:25:02;;;;;;;8.68;2.15;;;15.40;99.90;;;;;;5078198;28;20069;-41
2022/11/07 12:27:28;;;;;;;7.20;2.20;;;15.50;99.90;;;;;;5069225;28;20033;-41
2022/11/07 12:30:23;;;;;;;11.77;2.70;;;15.50;99.90;;;;;;5071915;28;20548;-39
2022/11/07 12:33:28;;;;;;;9.25;2.60;;;15.50;99.90;;;;;;5069194;28;20040;-35
2022/11/07 12:36:51;;;;;;;6.20;1.95;;;15.50;99.90;;;;;;5079188;28;20101;-36
2022/11/07 12:39:45;;;;;;;6.60;1.92;;;15.50;99.90;;;;;;4965149;28;20045;-33
2022/11/07 12:42:22;;;;;;;8.20;1.90;;;15.50;99.90;;;;;;4963771;28;20091;-38
2022/11/07 12:44:59;;;;;;;5.47;2.10;;;15.50;99.90;;;;;;5053483;28;20028;-39
2022/11/07 12:47:57;;;;;;;7.03;2.03;;;15.50;99.90;;;;;;5082247;28;20059;-38
2022/11/07 12:50:27;;;;;;;8.85;2.33;;;15.50;99.90;;;;;;5078181;28;20028;-41
2022/11/07 12:53:30;;;;;;;6.55;2.05;;;15.50;99.90;;;;;;5079423;28;20016;-38
2022/11/07 12:56:02;;;;;;;6.03;1.95;;;15.50;99.90;;;;;;5077166;28;20502;-41
2022/11/07 12:58:31;;;;;;;4.32;1.85;;;15.50;99.90;;;;;;5082550;28;20070;-41
2022/11/07 13:00:58;;;;;;;9.95;2.22;;;15.50;99.90;;;;;;5081373;28;20139;-37
2022/11/07 13:03:54;;;;;;;9.45;1.73;;;15.60;99.90;;;;;;5082959;28;20020;-40
2022/11/07 13:06:53;;;;;;;4.63;1.50;;;15.60;99.90;;;;;;5082183;28;20474;-40
2022/11/07 13:09:43;;;;;;;7.50;2.03;;;15.70;99.90;;;;;;5082728;28;20500;-40